Meath Environmental Platform

Observations for Trim Patrick St

Time AQI Temp °C Hum % Pres Pa CO μg/m³ H₂S μg/m³ NO μg/m³ NO₂ μg/m³ O₃ μg/m³ SO₂ μg/m³ PM1 μg/m³ PM2.5 μg/m³ PM10 μg/m³
Friday 31 July 2026
23:48 2 14.3 67 76,564 0.14 4.73 3.04 17.24 49.31 0 14 24.3 26.73
23:47 2 14.4 66 76,444 0.13 3.74 3.05 17.94 46.11 0 12.29 17.78 19.56
23:46 2 14.4 66 76,309 0.13 4.6 3.21 19.73 45.06 0 13.14 19.94 21.94
23:45 2 14.4 66 76,179 0.13 4.99 3.1 16.69 47.69 0 9.71 15.6 17.16
23:44 2 14.5 66 76,051 0.13 4.91 3.15 22.68 49.06 0 7.14 11.22 12.35
23:43 2 14.5 66 75,929 0.14 4.91 3.06 19.6 47.31 0 6.29 11.95 13.15
23:42 2 14.5 66 75,835 0.13 5.61 2.92 20.37 44.44 0 5.43 10.53 11.58
23:41 2 14.5 66 75,752 0.13 4.73 2.76 19.03 47.85 0 3.71 7.61 8.38
23:40 2 14.6 65 75,678 0.12 4.68 2.49 15.92 48.19 0 3.71 8.38 9.22
23:39 2 14.6 66 75,597 0.12 4.18 2.31 14.92 53.17 0 2.86 7.63 8.39
23:38 2 14.6 66 75,546 0.12 5.28 2.67 17.72 50.7 0 2.86 6.87 7.56
23:37 2 14.6 66 75,491 0.12 5.28 2.88 20.68 50.45 0 2.86 7.63 8.39
23:36 2 14.7 65 75,436 0.12 4.57 3.01 17.06 50.48 0 2.86 6.91 7.6
23:35 2 14.7 64 75,379 0.11 3.95 2.82 16.74 42.76 0 2.86 7 7.7
23:34 2 14.7 65 75,336 0.13 3.69 2.97 12.6 51.89 0 2 6.92 7.61
23:33 2 14.7 64 75,306 0.12 4.26 3 15.96 43.42 0 2.86 6.99 7.69
23:32 2 14.8 64 75,273 0.11 4.68 2.86 16.22 47.81 0 2.86 6.28 6.9
23:31 2 14.8 65 75,241 0.12 3.8 2.8 12.76 50.09 0 3.71 8.37 9.21
23:30 2 14.8 65 75,214 0.1 4.63 2.72 19.16 50.2 0 2.86 6.19 6.8
23:29 2 14.8 64 75,177 0.13 4.63 2.15 15.08 44.1 0 2 6.28 6.9